Time;durP1;ratioP1;P1;durP2;ratioP2;P2;SDS_P1;SDS_P2;PMS_P1;PMS_P2;Temp;Humidity;BMP_temperature;BMP_pressure;BME280_temperature;BME280_humidity;BME280_pressure;Samples;Min_cycle;Max_cycle;Signal;HPM_P1;HPM_P2
2021/08/17 00:02:23;;;;;;;13.95;3.40;;;13.00;99.90;;;14.04;77.34;100583.13;6163666;23;20039;-88
2021/08/17 00:04:49;;;;;;;10.85;3.05;;;13.10;99.90;;;14.20;77.13;100585.72;6190306;23;20009;-84
2021/08/17 00:07:16;;;;;;;6.60;2.33;;;13.10;99.90;;;14.14;77.64;100585.25;6213451;23;20005;-84
2021/08/17 00:09:42;;;;;;;7.88;2.47;;;13.10;99.90;;;14.26;77.72;100582.19;6213388;23;20013;-82
2021/08/17 00:12:08;;;;;;;11.60;3.10;;;13.10;99.90;;;14.21;77.84;100590.16;6213262;23;20402;-83
2021/08/17 00:14:34;;;;;;;9.95;2.90;;;13.10;99.90;;;14.22;77.93;100583.34;6213023;23;20055;-86
2021/08/17 00:17:00;;;;;;;15.00;3.88;;;13.10;99.90;;;14.30;77.90;100582.22;6212977;23;20009;-87
2021/08/17 00:19:26;;;;;;;10.00;2.90;;;13.20;99.90;;;14.22;78.19;100588.97;6187699;23;20048;-85
2021/08/17 00:21:52;;;;;;;8.80;2.85;;;13.10;99.90;;;14.23;78.45;100582.13;6212933;23;20032;-86
2021/08/17 00:24:17;;;;;;;8.98;2.80;;;13.10;99.90;;;14.08;78.82;100588.78;6212029;23;20471;-84
2021/08/17 00:26:43;;;;;;;9.73;2.90;;;13.00;99.90;;;13.97;79.77;100585.03;6212653;23;20012;-85
2021/08/17 00:29:09;;;;;;;13.63;3.08;;;13.00;99.90;;;13.88;80.09;100578.91;6212057;23;20032;-83
2021/08/17 00:31:35;;;;;;;8.88;2.90;;;12.90;99.90;;;13.81;80.33;100574.00;6187052;23;20028;-85
2021/08/17 00:34:01;;;;;;;10.45;3.03;;;12.90;99.90;;;13.84;80.56;100578.88;6211903;23;20036;-84
2021/08/17 00:36:30;;;;;;;11.45;3.08;;;12.80;99.90;;;13.83;80.51;100571.66;6211274;23;20089;-82
2021/08/17 00:38:56;;;;;;;12.93;3.38;;;12.80;99.90;;;13.77;80.88;100570.38;6211450;23;20005;-86
2021/08/17 00:41:25;;;;;;;11.10;2.72;;;12.80;99.90;;;13.77;81.34;100576.00;6187629;23;20001;-85
2021/08/17 00:43:51;;;;;;;8.55;3.00;;;12.80;99.90;;;13.63;81.81;100565.38;6210446;23;20342;-84
2021/08/17 00:46:18;;;;;;;11.88;3.17;;;12.70;99.90;;;13.61;81.81;100570.53;6210734;23;20465;-83
2021/08/17 00:48:44;;;;;;;14.07;3.75;;;12.70;99.90;;;13.51;82.54;100570.41;6187563;23;20020;-86
2021/08/17 00:51:10;;;;;;;8.63;3.17;;;12.60;99.90;;;13.60;82.77;100568.94;6185866;23;20013;-86
2021/08/17 00:53:37;;;;;;;13.48;3.17;;;12.60;99.90;;;13.56;82.85;100573.69;6198970;23;20426;-85
2021/08/17 00:56:06;;;;;;;14.77;3.55;;;12.60;99.90;;;13.54;82.86;100572.47;6190869;23;20555;-85
2021/08/17 00:58:33;;;;;;;15.20;3.22;;;12.60;99.90;;;13.56;82.94;100578.50;6189069;23;20028;-87
2021/08/17 01:00:59;;;;;;;10.93;3.38;;;12.60;99.90;;;13.54;83.30;100570.47;6190040;23;20153;-86
2021/08/17 01:03:27;;;;;;;15.45;3.35;;;12.60;99.90;;;13.54;83.61;100575.28;6189177;23;20009;-83
2021/08/17 01:05:55;;;;;;;9.73;3.00;;;12.50;99.90;;;13.54;83.63;100578.06;6190813;23;20023;-86
2021/08/17 01:08:21;;;;;;;16.25;3.47;;;12.50;99.90;;;13.44;84.31;100573.13;6190330;23;20087;-87
2021/08/17 01:10:47;;;;;;;14.48;3.70;;;12.50;99.90;;;13.47;84.66;100581.59;6190363;23;20435;-84
2021/08/17 01:13:13;;;;;;;12.73;4.20;;;12.50;99.90;;;13.44;85.04;100581.53;6190102;23;20022;-84
2021/08/17 01:15:39;;;;;;;10.73;3.63;;;12.50;99.90;;;13.55;84.91;100593.72;6188754;23;20008;-83
2021/08/17 01:18:07;;;;;;;15.80;4.88;;;12.50;99.90;;;13.50;84.98;100586.44;6190980;23;20004;-84
2021/08/17 01:20:34;;;;;;;13.02;4.57;;;12.60;99.90;;;13.60;84.48;100591.41;6190676;23;20502;-86
2021/08/17 01:23:00;;;;;;;15.30;4.28;;;12.70;99.90;;;13.68;84.66;100589.47;6215892;23;20008;-82
2021/08/17 01:25:26;;;;;;;10.43;3.88;;;12.70;99.90;;;13.73;84.11;100594.78;6217896;23;20015;-81
2021/08/17 01:27:52;;;;;;;13.88;4.05;;;12.70;99.90;;;13.73;84.13;100592.78;6217168;23;20060;-87
2021/08/17 01:30:18;;;;;;;11.15;4.53;;;12.80;99.90;;;13.79;84.01;100587.63;6219422;23;20005;-87
2021/08/17 01:32:47;;;;;;;10.27;4.22;;;12.80;99.90;;;13.89;83.39;100601.00;6219774;23;20016;-83
2021/08/17 01:35:13;;;;;;;13.02;4.75;;;12.90;99.90;;;13.93;83.25;100601.06;6219180;23;20031;-84
2021/08/17 01:37:40;;;;;;;14.73;4.38;;;12.90;99.90;;;13.95;83.68;100607.09;6192547;23;20005;-86
2021/08/17 01:40:11;;;;;;;16.83;4.82;;;13.00;99.90;;;13.98;83.43;100606.31;6219927;23;20430;-83
2021/08/17 01:42:52;;;;;;;10.23;3.88;;;12.90;99.90;;;13.98;83.48;100617.56;6190866;23;20116;-85
2021/08/17 01:45:21;;;;;;;9.85;3.10;;;12.90;99.90;;;13.89;83.85;100612.22;6192767;23;20013;-85
2021/08/17 01:47:50;;;;;;;15.07;3.70;;;12.80;99.90;;;13.90;83.86;100613.81;6192441;23;20103;-85
2021/08/17 01:50:18;;;;;;;12.85;4.10;;;12.90;99.90;;;13.98;83.87;100609.13;6191999;23;20011;-87
2021/08/17 01:52:44;;;;;;;14.65;4.28;;;12.90;99.90;;;13.95;84.00;100607.91;6216696;23;20015;-85
2021/08/17 01:55:10;;;;;;;11.13;4.20;;;12.90;99.90;;;13.88;83.92;100605.00;6219144;23;20005;-88
2021/08/17 01:57:41;;;;;;;9.60;3.45;;;12.90;99.90;;;13.89;83.65;100608.63;6192047;23;20009;-87
2021/08/17 02:00:10;;;;;;;12.27;3.60;;;12.90;99.90;;;13.93;83.96;100615.09;6218873;23;20406;-87
2021/08/17 02:02:37;;;;;;;13.55;4.10;;;12.90;99.90;;;13.86;84.89;100615.00;6221109;23;20505;-85
2021/08/17 02:05:04;;;;;;;12.07;4.15;;;12.80;99.90;;;13.84;85.63;100615.34;6194985;23;20005;-84
2021/08/17 02:07:30;;;;;;;13.95;4.68;;;12.80;99.90;;;13.67;86.64;100618.75;6221267;23;20004;-88
2021/08/17 02:09:56;;;;;;;16.55;4.57;;;12.70;99.90;;;13.61;87.34;100614.66;6210555;23;20008;-86
2021/08/17 02:12:22;;;;;;;12.75;4.90;;;12.60;99.90;;;13.55;87.67;100622.56;6231349;23;20075;-85
2021/08/17 02:14:48;;;;;;;12.65;4.43;;;12.60;99.90;;;13.41;88.26;100615.97;6192436;23;20024;-83
2021/08/17 02:17:14;;;;;;;13.95;5.35;;;12.50;99.90;;;13.48;88.71;100624.50;6192333;23;20084;-87
2021/08/17 02:19:40;;;;;;;13.45;5.10;;;12.40;99.90;;;13.19;90.39;100621.25;6193079;23;20172;-84
2021/08/17 02:22:05;;;;;;;15.32;5.43;;;12.40;99.90;;;13.30;90.03;100629.00;6219116;23;20019;-84
2021/08/17 02:24:32;;;;;;;15.43;5.38;;;12.30;99.90;;;13.15;91.14;100628.78;6219189;23;20028;-85
2021/08/17 02:26:58;;;;;;;13.88;5.28;;;12.30;99.90;;;13.23;91.04;100631.72;6191565;23;20036;-86
2021/08/17 02:29:24;;;;;;;14.20;6.03;;;12.30;99.90;;;13.13;91.69;100627.56;6192083;23;20114;-85
2021/08/17 02:31:50;;;;;;;15.77;5.75;;;12.20;99.90;;;13.09;92.56;100635.91;6192480;23;20009;-84
2021/08/17 02:34:16;;;;;;;19.25;6.18;;;12.10;99.90;;;12.97;93.38;100622.03;6219133;23;20005;-85
2021/08/17 02:36:43;;;;;;;16.58;5.63;;;12.00;99.90;;;13.02;93.00;100635.75;6192770;23;20068;-82
2021/08/17 02:39:09;;;;;;;17.63;6.63;;;12.00;99.90;;;12.82;94.14;100628.59;6219623;23;20001;-86
2021/08/17 02:41:35;;;;;;;16.15;6.05;;;11.90;99.90;;;12.83;94.43;100635.81;6190837;23;20120;-87
2021/08/17 02:44:00;;;;;;;18.30;6.15;;;11.80;99.90;;;12.78;94.68;100640.94;6191102;23;20036;-84
2021/08/17 02:46:26;;;;;;;22.35;7.65;;;11.80;99.90;;;12.64;96.22;100641.47;6191993;23;20012;-84
2021/08/17 02:48:52;;;;;;;21.75;7.25;;;11.70;99.90;;;12.63;96.55;100640.66;6192210;23;20473;-84
2021/08/17 02:51:18;;;;;;;20.10;8.20;;;11.70;99.90;;;12.64;96.87;100636.69;6192538;23;20486;-86
2021/08/17 02:53:44;;;;;;;22.25;8.30;;;11.70;99.90;;;12.57;98.08;100641.34;6217758;23;20017;-87
2021/08/17 02:56:10;;;;;;;19.45;7.97;;;11.60;99.90;;;12.54;98.41;100639.28;6218954;23;20009;-86
2021/08/17 02:58:36;;;;;;;22.42;9.32;;;11.70;99.90;;;12.61;98.29;100640.25;6218154;23;20005;-86
2021/08/17 03:01:02;;;;;;;21.83;9.75;;;11.60;99.90;;;12.58;98.54;100637.38;6191657;23;20012;-86
2021/08/17 03:03:28;;;;;;;24.38;10.15;;;11.60;99.90;;;12.59;98.36;100636.16;6190596;23;20008;-86
2021/08/17 03:05:54;;;;;;;28.10;10.32;;;11.60;99.90;;;12.57;99.31;100636.56;6191057;23;20019;-84
2021/08/17 03:08:19;;;;;;;30.33;11.75;;;11.60;99.90;;;12.54;99.47;100637.28;6191756;23;20025;-83
2021/08/17 03:10:45;;;;;;;25.48;11.38;;;11.60;99.90;;;12.47;100.00;100642.75;6192189;23;20293;-85
2021/08/17 03:13:11;;;;;;;28.27;12.57;;;11.60;99.90;;;12.57;100.00;100652.53;6190373;23;20344;-85
2021/08/17 03:15:38;;;;;;;26.58;11.75;;;11.60;99.90;;;12.62;100.00;100650.25;6191772;23;20012;-83
2021/08/17 03:18:08;;;;;;;32.10;13.35;;;11.60;99.90;;;12.51;100.00;100652.06;6190747;23;20460;-85
2021/08/17 03:20:36;;;;;;;39.33;15.18;;;11.60;99.90;;;12.46;100.00;100654.31;6190403;23;20015;-85
2021/08/17 03:23:03;;;;;;;39.92;14.35;;;11.50;99.90;;;12.46;100.00;100648.72;6190655;23;20013;-87
2021/08/17 03:25:29;;;;;;;35.10;14.68;;;11.50;99.90;;;12.53;100.00;100643.25;6190403;23;20012;-85
2021/08/17 03:27:57;;;;;;;41.47;16.35;;;11.50;99.90;;;12.38;100.00;100639.38;6192070;23;20074;-82
2021/08/17 03:30:25;;;;;;;40.67;17.67;;;11.50;99.90;;;12.45;100.00;100647.13;6191623;23;20020;-85
2021/08/17 03:32:51;;;;;;;46.15;18.20;;;11.50;99.90;;;12.46;100.00;100649.53;6192091;23;20020;-85
2021/08/17 03:35:18;;;;;;;48.78;19.08;;;11.50;99.90;;;12.48;100.00;100644.38;6192293;23;20431;-86
2021/08/17 03:37:45;;;;;;;47.90;20.15;;;11.60;99.90;;;12.52;100.00;100633.25;6222983;23;20008;-85
2021/08/17 03:40:17;;;;;;;47.95;20.50;;;11.50;99.90;;;12.48;100.00;100637.97;6203108;23;20035;-86
2021/08/17 03:42:44;;;;;;;46.10;19.35;;;11.50;99.90;;;12.57;100.00;100646.94;6202749;23;20009;-85
2021/08/17 03:45:16;;;;;;;45.67;19.73;;;11.60;99.90;;;12.60;100.00;100647.00;6196302;23;20018;-86
2021/08/17 03:47:43;;;;;;;44.60;20.10;;;11.60;99.90;;;12.60;100.00;100643.41;6192529;23;20028;-85
2021/08/17 03:50:14;;;;;;;48.50;19.42;;;11.60;99.90;;;12.61;100.00;100645.84;6191624;23;20004;-85
2021/08/17 03:52:42;;;;;;;59.50;22.05;;;11.60;99.90;;;12.53;100.00;100638.47;6191031;23;20075;-84
2021/08/17 03:55:10;;;;;;;55.90;21.85;;;11.50;99.90;;;12.52;100.00;100641.66;6191299;23;20084;-84
2021/08/17 03:57:36;;;;;;;48.38;19.92;;;11.50;99.90;;;12.56;100.00;100642.50;6217637;23;20005;-85
2021/08/17 04:00:14;;;;;;;53.13;20.98;;;11.50;99.90;;;12.54;100.00;100642.09;6190837;23;20457;-87
2021/08/17 04:02:41;;;;;;;58.38;23.00;;;11.50;99.90;;;12.53;100.00;100641.28;6167233;23;20016;-84
2021/08/17 04:05:10;;;;;;;55.00;22.88;;;11.60;99.90;;;12.58;100.00;100642.97;6216116;23;20070;-85
2021/08/17 04:07:37;;;;;;;51.05;21.42;;;11.60;99.90;;;12.64;100.00;100639.50;6192838;23;20008;-86
2021/08/17 04:10:06;;;;;;;65.70;22.92;;;11.60;99.90;;;12.63;100.00;100637.03;6194091;23;20070;-82
2021/08/17 04:12:33;;;;;;;59.65;23.60;;;11.60;99.90;;;12.59;100.00;100642.59;6194852;23;20421;-87
2021/08/17 04:14:59;;;;;;;68.55;22.77;;;11.60;99.90;;;12.67;100.00;100646.34;6194567;23;20009;-84
2021/08/17 04:17:25;;;;;;;54.35;24.02;;;11.60;99.90;;;12.66;100.00;100645.53;6194876;23;20091;-85
2021/08/17 04:19:51;;;;;;;58.53;23.90;;;11.70;99.90;;;12.68;100.00;100643.16;6194634;23;20052;-86
2021/08/17 04:22:18;;;;;;;59.13;22.67;;;11.70;99.90;;;12.78;100.00;100650.13;6219839;23;20008;-89
2021/08/17 04:24:43;;;;;;;54.38;22.40;;;11.70;99.90;;;12.80;100.00;100646.97;6196100;23;20417;-86
2021/08/17 04:27:09;;;;;;;56.70;22.52;;;11.70;99.90;;;12.83;100.00;100649.03;6207876;23;20005;-86
2021/08/17 04:29:37;;;;;;;60.45;23.08;;;11.80;99.90;;;12.87;100.00;100656.31;6196469;23;20013;-85
2021/08/17 04:32:06;;;;;;;57.72;22.40;;;11.80;99.90;;;12.84;100.00;100648.66;6192153;23;20104;-87
2021/08/17 04:34:33;;;;;;;59.08;22.30;;;11.70;99.90;;;12.92;100.00;100658.81;6194542;23;20072;-86
2021/08/17 04:36:59;;;;;;;63.30;22.35;;;11.90;99.90;;;12.90;100.00;100661.19;6224929;23;20001;-87
2021/08/17 04:39:25;;;;;;;56.08;23.02;;;11.80;99.90;;;12.94;100.00;100669.66;6195879;23;20000;-85
2021/08/17 04:41:51;;;;;;;60.67;22.75;;;11.90;99.90;;;12.99;100.00;100675.75;6197152;23;20009;-83
2021/08/17 04:44:17;;;;;;;60.70;24.55;;;11.90;99.90;;;13.10;100.00;100671.16;6191869;23;20004;-84
2021/08/17 04:46:43;;;;;;;61.47;23.33;;;12.00;99.90;;;13.08;100.00;100667.09;6191886;23;20061;-84
2021/08/17 04:49:09;;;;;;;50.20;22.02;;;12.00;99.90;;;13.14;100.00;100677.63;6192253;23;20005;-86
2021/08/17 04:51:35;;;;;;;53.20;21.10;;;12.00;99.90;;;13.08;100.00;100678.28;6193100;23;20300;-86
2021/08/17 04:54:01;;;;;;;63.05;24.00;;;12.00;99.90;;;12.96;100.00;100676.50;6192123;23;20020;-86
2021/08/17 04:56:27;;;;;;;57.15;22.88;;;12.00;99.90;;;13.14;100.00;100672.03;6193579;23;20050;-84
2021/08/17 04:58:54;;;;;;;67.93;24.63;;;12.10;99.90;;;13.22;100.00;100669.34;6193917;23;20036;-86
2021/08/17 05:01:20;;;;;;;55.95;22.92;;;12.10;99.90;;;13.20;100.00;100673.34;6226223;23;20004;-90
2021/08/17 05:03:46;;;;;;;58.15;22.92;;;12.10;99.90;;;13.11;100.00;100678.38;6225586;23;20008;-88
2021/08/17 05:06:12;;;;;;;63.67;24.58;;;12.20;99.90;;;13.20;100.00;100678.94;6223779;23;20102;-89
2021/08/17 05:08:39;;;;;;;57.83;23.73;;;12.10;99.90;;;13.26;100.00;100671.00;6221991;23;20382;-84
2021/08/17 05:11:05;;;;;;;62.40;23.23;;;12.20;99.90;;;13.33;100.00;100687.97;6194040;23;20009;-86
2021/08/17 05:13:31;;;;;;;56.33;23.67;;;12.20;99.90;;;13.40;100.00;100676.88;6192548;23;20008;-84
2021/08/17 05:15:57;;;;;;;56.85;22.90;;;12.30;99.90;;;13.66;100.00;100690.09;6218004;23;20015;-87
2021/08/17 05:18:24;;;;;;;56.00;22.42;;;12.50;99.90;;;13.83;100.00;100683.94;6192615;23;20008;-86
2021/08/17 05:20:51;;;;;;;56.28;22.58;;;12.60;99.90;;;14.00;100.00;100679.78;6218042;23;20057;-89
2021/08/17 05:23:17;;;;;;;57.58;23.13;;;12.80;99.90;;;14.01;100.00;100690.59;6219425;23;20031;-84
2021/08/17 05:25:43;;;;;;;51.03;21.90;;;12.90;99.90;;;14.09;100.00;100681.09;6193586;23;20019;-86
2021/08/17 05:28:09;;;;;;;52.53;22.08;;;13.00;99.90;;;14.32;99.65;100685.81;6218624;23;20008;-87
2021/08/17 05:30:35;;;;;;;51.80;22.38;;;13.10;99.90;;;14.57;98.65;100689.75;6193697;23;20353;-88
2021/08/17 05:33:01;;;;;;;47.17;21.80;;;13.30;99.90;;;14.64;98.06;100685.00;6191233;23;20091;-85
2021/08/17 05:35:27;;;;;;;45.95;20.90;;;13.50;99.90;;;14.69;96.75;100681.84;6194165;23;20008;-84
2021/08/17 05:37:53;;;;;;;49.78;21.08;;;13.60;99.90;;;14.88;96.27;100688.47;6193732;23;20000;-83
2021/08/17 05:40:19;;;;;;;43.05;20.73;;;13.80;99.90;;;15.18;94.80;100691.97;6193770;23;20064;-88
2021/08/17 05:42:45;;;;;;;50.60;20.52;;;13.90;99.90;;;15.21;94.35;100688.38;6195520;23;20150;-86
2021/08/17 05:45:12;;;;;;;44.85;19.20;;;14.00;99.90;;;15.53;94.20;100692.31;6193348;23;20012;-85
2021/08/17 05:47:47;;;;;;;39.75;18.98;;;14.20;99.90;;;15.48;92.45;100700.28;6191865;23;20008;-85
2021/08/17 05:50:17;;;;;;;44.45;20.00;;;14.30;99.90;;;15.41;92.21;100698.19;6220901;23;20032;-84
2021/08/17 05:52:44;;;;;;;36.88;17.90;;;14.30;99.90;;;15.37;91.79;100699.38;6196354;23;20032;-86
2021/08/17 06:20:23;;;;;;;34.10;17.20;;;14.60;99.90;;;16.41;86.82;100685.56;6211300;23;20017;-87
2021/08/17 06:22:51;;;;;;;35.70;17.05;;;14.90;99.90;;;16.50;85.00;100698.09;6158080;23;20012;-93
2021/08/17 06:25:17;;;;;;;33.28;16.70;;;15.10;99.90;;;16.57;85.04;100692.50;6171044;23;20019;-89
2021/08/17 06:27:43;;;;;;;34.75;18.13;;;15.30;99.90;;;16.32;85.19;100689.56;6171046;23;20008;-89
2021/08/17 06:30:09;;;;;;;34.67;16.83;;;15.20;99.90;;;16.47;85.62;100681.16;6168156;23;20065;-86
2021/08/17 06:32:36;;;;;;;35.88;16.23;;;15.30;99.90;;;16.75;84.14;100681.28;6194099;23;20013;-92
2021/08/17 06:35:04;;;;;;;38.47;17.38;;;15.40;99.90;;;16.83;84.43;100686.53;6197163;23;20005;-92
2021/08/17 06:37:30;;;;;;;33.85;17.33;;;15.50;99.90;;;16.68;83.88;100681.25;6193803;23;20012;-90
2021/08/17 06:39:56;;;;;;;35.33;17.13;;;15.50;99.90;;;16.79;83.53;100690.56;6193654;23;20005;-89
2021/08/17 06:42:22;;;;;;;34.88;18.33;;;15.60;99.90;;;16.82;83.02;100695.41;6192014;23;20024;-89
2021/08/17 06:44:48;;;;;;;37.72;17.65;;;15.60;99.90;;;16.86;83.15;100699.00;6193322;23;20005;-89
2021/08/17 06:47:14;;;;;;;38.05;18.55;;;15.60;99.90;;;16.53;84.54;100685.22;6167515;23;20067;-87
2021/08/17 06:49:40;;;;;;;34.72;18.23;;;15.50;99.90;;;16.22;86.39;100690.31;6167505;23;20292;-89
2021/08/17 06:52:06;;;;;;;37.47;18.98;;;15.40;99.90;;;16.46;85.88;100688.81;6165883;23;20029;-90
2021/08/17 06:54:32;;;;;;;36.75;18.95;;;15.40;99.90;;;16.95;83.88;100693.81;6192619;23;20019;-89
2021/08/17 06:56:58;;;;;;;40.03;19.05;;;15.60;99.90;;;17.06;83.93;100705.09;6192432;23;20009;-88
2021/08/17 06:59:24;;;;;;;34.33;18.70;;;15.80;99.90;;;17.38;82.12;100700.28;6193732;23;20316;-88
2021/08/17 07:01:50;;;;;;;38.63;20.10;;;16.10;99.90;;;17.80;80.35;100702.31;6169460;23;20427;-88
2021/08/17 07:04:16;;;;;;;37.28;20.17;;;16.30;99.90;;;17.31;82.59;100694.66;6168318;23;20001;-89
2021/08/17 07:06:42;;;;;;;36.15;20.70;;;16.50;99.90;;;17.43;80.82;100697.09;6191872;23;20036;-87
2021/08/17 07:09:08;;;;;;;40.03;20.40;;;16.50;99.90;;;17.26;82.70;100687.41;6192463;23;20015;-88
2021/08/17 07:11:34;;;;;;;33.22;19.95;;;16.40;99.90;;;17.79;81.31;100697.88;6191916;23;20442;-88
2021/08/17 07:14:02;;;;;;;36.92;20.02;;;16.60;99.90;;;18.13;80.12;100699.03;6191559;23;20013;-89
2021/08/17 07:16:28;;;;;;;34.90;19.50;;;16.80;99.90;;;18.53;78.30;100702.53;6166530;23;20040;-86
2021/08/17 07:18:54;;;;;;;39.88;21.70;;;17.10;99.90;;;18.40;77.84;100697.31;6166417;23;20435;-88
2021/08/17 07:21:21;;;;;;;34.53;20.20;;;17.10;99.90;;;18.57;77.97;100692.81;6191874;23;20012;-84
2021/08/17 07:23:47;;;;;;;36.13;21.85;;;17.30;99.90;;;18.83;76.45;100689.44;6190358;23;20013;-89
2021/08/17 07:26:13;;;;;;;36.13;20.77;;;17.40;99.90;;;18.33;77.92;100682.41;6166008;23;20108;-89
2021/08/17 07:28:39;;;;;;;39.25;21.88;;;17.30;99.90;;;18.33;78.39;100690.88;6189835;23;20023;-89
2021/08/17 07:31:05;;;;;;;40.67;22.48;;;17.10;99.90;;;18.17;79.42;100680.00;6196158;23;20037;-87
2021/08/17 07:33:31;;;;;;;39.08;23.05;;;17.10;99.90;;;18.10;80.03;100677.22;6202318;23;20021;-88
2021/08/17 07:35:58;;;;;;;39.42;22.02;;;16.90;99.90;;;17.96;80.77;100680.09;6193401;23;20019;-86
2021/08/17 07:38:24;;;;;;;40.40;22.55;;;16.80;99.90;;;17.81;81.82;100687.00;6179572;23;20009;-91
2021/08/17 07:40:50;;;;;;;37.47;21.60;;;16.70;99.90;;;18.13;81.29;100699.03;6195875;23;20005;-88
2021/08/17 07:43:16;;;;;;;36.20;21.52;;;16.80;99.90;;;18.23;80.33;100700.22;6194021;23;20019;-89
2021/08/17 07:45:43;;;;;;;37.92;22.77;;;16.90;99.90;;;18.06;80.59;100701.88;6177008;23;20028;-84
2021/08/17 07:48:09;;;;;;;38.20;21.83;;;16.80;99.90;;;18.07;82.08;100702.69;6204298;23;20005;-88
2021/08/17 07:50:38;;;;;;;43.45;22.50;;;16.90;99.90;;;17.75;82.84;100694.28;6204962;23;20012;-87
2021/08/17 07:53:07;;;;;;;40.28;22.48;;;16.80;99.90;;;17.95;82.30;100698.25;6206165;23;20277;-86
2021/08/17 07:55:33;;;;;;;39.85;23.00;;;16.80;99.90;;;17.93;82.80;100695.03;6201045;23;20012;-88
2021/08/17 07:57:59;;;;;;;39.05;22.63;;;16.90;99.90;;;18.10;81.71;100696.22;6201218;23;20068;-83
2021/08/17 08:00:26;;;;;;;40.22;23.52;;;16.90;99.90;;;18.00;81.26;100695.03;6203727;23;20020;-89
2021/08/17 08:02:51;;;;;;;41.53;22.48;;;16.90;99.90;;;17.81;82.83;100701.94;6207366;23;20012;-86
2021/08/17 08:05:18;;;;;;;43.60;23.35;;;16.80;99.90;;;17.77;82.77;100700.31;6207405;23;20004;-86
2021/08/17 08:07:44;;;;;;;35.50;20.95;;;16.70;99.90;;;17.96;82.99;100682.91;6204087;23;20008;-85
2021/08/17 08:10:10;;;;;;;41.35;22.83;;;16.70;99.90;;;17.89;83.71;100680.09;6181927;23;20009;-87
2021/08/17 08:12:36;;;;;;;40.53;22.27;;;16.60;99.90;;;17.75;83.23;100660.38;6205905;23;20013;-86
2021/08/17 08:15:03;;;;;;;44.75;22.60;;;16.60;99.90;;;17.55;83.91;100668.47;6206107;23;20072;-90
2021/08/17 08:17:29;;;;;;;36.78;21.05;;;16.60;99.90;;;17.82;83.63;100669.63;6207054;23;20004;-85
2021/08/17 08:19:55;;;;;;;41.53;22.05;;;16.50;99.90;;;17.84;83.38;100672.03;6212471;23;20036;-90
2021/08/17 08:22:21;;;;;;;46.13;23.77;;;16.60;99.90;;;17.45;84.62;100686.19;6193998;23;20025;-92
2021/08/17 08:24:47;;;;;;;37.13;21.55;;;16.50;99.90;;;17.69;84.26;100662.00;6217431;23;20024;-92
2021/08/17 08:27:14;;;;;;;39.20;22.88;;;16.50;99.90;;;17.65;85.23;100664.00;6220018;23;20004;-90
2021/08/17 08:29:43;;;;;;;43.75;23.80;;;16.50;99.90;;;17.87;84.06;100665.59;6219270;23;20274;-88
2021/08/17 08:32:10;;;;;;;46.60;23.50;;;16.70;99.90;;;18.74;80.73;100677.78;6219708;23;20316;-90
2021/08/17 08:34:36;;;;;;;40.00;21.40;;;17.20;99.90;;;19.53;76.86;100686.53;6190620;23;20039;-87
2021/08/17 08:37:02;;;;;;;37.33;20.95;;;17.90;99.90;;;20.57;73.76;100693.53;6215951;23;20005;-89
2021/08/17 08:39:29;;;;;;;34.92;20.42;;;18.80;99.90;;;21.30;68.74;100683.16;6215426;23;20009;-86
2021/08/17 08:41:56;;;;;;;33.38;19.02;;;19.60;99.90;;;21.22;67.91;100675.19;6217408;23;20008;-90
2021/08/17 08:44:22;;;;;;;33.10;19.20;;;20.00;99.90;;;21.58;66.82;100681.06;6215066;23;20048;-90
2021/08/17 08:46:52;;;;;;;33.88;19.15;;;20.10;99.90;;;20.96;68.71;100677.56;6216862;23;20005;-90
2021/08/17 08:49:19;;;;;;;30.70;19.20;;;19.80;99.90;;;20.72;69.83;100683.59;6215791;23;20001;-88
2021/08/17 08:51:46;;;;;;;33.42;18.90;;;19.50;99.90;;;20.28;70.69;100681.72;6216842;23;20024;-88
2021/08/17 08:54:13;;;;;;;38.92;20.38;;;19.20;99.90;;;19.87;71.79;100678.94;6216624;23;20028;-90
2021/08/17 08:56:39;;;;;;;30.23;18.40;;;18.90;99.90;;;20.03;71.45;100689.69;6218469;23;20029;-88
2021/08/17 08:59:04;;;;;;;29.80;18.50;;;18.90;99.90;;;19.91;72.70;100697.50;6215646;23;20005;-89
2021/08/17 09:01:31;;;;;;;32.25;19.00;;;18.80;99.90;;;19.60;73.91;100695.78;6191173;23;20005;-87
2021/08/17 09:03:57;;;;;;;33.95;18.60;;;18.60;99.90;;;19.86;73.09;100688.66;6214028;23;20013;-88
2021/08/17 09:06:30;;;;;;;32.45;18.80;;;18.60;99.90;;;20.03;71.54;100673.50;6215795;23;20020;-87
2021/08/17 09:09:16;;;;;;;32.55;18.60;;;18.60;99.90;;;19.75;71.92;100668.09;6218130;23;20091;-89
2021/08/17 09:11:54;;;;;;;29.20;18.05;;;18.60;99.90;;;19.57;73.43;100668.28;6218969;23;20020;-89
2021/08/17 09:14:33;;;;;;;29.48;17.15;;;18.40;99.90;;;18.82;74.83;100662.34;6228760;23;20011;-86
2021/08/17 09:17:10;;;;;;;29.00;17.67;;;18.00;99.90;;;18.60;75.88;100668.56;6234769;23;20001;-83
2021/08/17 09:19:43;;;;;;;30.20;17.73;;;17.70;99.90;;;18.62;76.00;100664.09;6235385;23;20064;-83
2021/08/17 09:22:19;;;;;;;29.40;16.67;;;17.60;99.90;;;18.55;76.85;100660.50;6234809;23;20024;-80
2021/08/17 09:24:49;;;;;;;;;;;17.40;99.90;;;18.67;77.29;100672.16;6233979;23;20013;-86
2021/08/17 09:27:21;;;;;;;30.30;16.67;;;17.40;99.90;;;18.46;76.56;100671.44;6209345;23;19935;-86
2021/08/17 09:30:00;;;;;;;31.48;17.38;;;17.30;99.90;;;18.47;76.14;100668.19;6223230;23;20092;-89
2021/08/17 09:32:27;;;;;;;31.38;17.40;;;17.40;99.90;;;18.67;75.08;100680.66;6225220;23;20096;-92
2021/08/17 09:35:03;;;;;;;29.23;17.77;;;17.50;99.90;;;18.70;75.34;100670.53;6225010;23;20057;-91
2021/08/17 09:37:34;;;;;;;32.35;17.77;;;17.60;99.90;;;18.52;75.68;100673.47;6229679;23;20004;-89
2021/08/17 09:40:07;;;;;;;31.67;17.15;;;17.50;99.90;;;18.61;76.49;100673.00;6202591;23;20036;-89
2021/08/17 09:42:35;;;;;;;33.47;18.30;;;17.50;99.90;;;18.49;76.66;100670.63;6206011;23;20013;-91
2021/08/17 09:45:18;;;;;;;32.97;18.52;;;17.50;99.90;;;18.68;76.38;100684.28;6227416;23;20005;-89
2021/08/17 09:48:04;;;;;;;31.45;17.25;;;17.70;99.90;;;19.00;73.74;100682.06;6231615;23;20012;-91
2021/08/17 09:50:38;;;;;;;27.45;15.95;;;17.90;99.90;;;18.77;74.82;100674.13;6234919;23;20001;-84
2021/08/17 09:53:21;;;;;;;28.52;16.17;;;17.90;99.90;;;19.15;74.47;100677.91;6218133;23;20037;-89
2021/08/17 09:55:57;;;;;;;31.35;15.73;;;17.90;99.90;;;19.16;75.60;100684.38;6216674;23;20363;-92
2021/08/17 09:58:30;;;;;;;32.33;16.88;;;18.00;99.90;;;18.81;75.13;100686.25;6218083;23;20005;-90
2021/08/17 10:01:04;;;;;;;29.38;16.83;;;17.80;99.90;;;18.84;75.37;100679.75;6194282;23;20323;-89
2021/08/17 10:03:32;;;;;;;32.58;17.30;;;17.70;99.90;;;18.27;75.82;100682.00;6219711;23;20013;-90
2021/08/17 10:06:00;;;;;;;28.73;16.35;;;17.40;99.90;;;18.25;76.98;100687.28;6220577;23;20020;-90
2021/08/17 10:08:30;;;;;;;26.20;15.30;;;17.20;99.90;;;18.23;77.71;100686.88;6194044;23;20036;-91
2021/08/17 10:11:00;;;;;;;32.63;17.48;;;17.20;99.90;;;18.28;78.22;100692.09;6218006;23;20420;-87
2021/08/17 10:13:31;;;;;;;27.23;15.82;;;17.10;99.90;;;18.49;77.67;100682.75;6217911;23;20012;-91
2021/08/17 10:16:00;;;;;;;30.63;16.48;;;17.20;99.90;;;18.68;76.36;100682.25;6219862;23;20005;-90
2021/08/17 10:18:37;;;;;;;27.45;16.23;;;17.40;99.90;;;18.78;75.59;100687.03;6217272;23;20007;-85
2021/08/17 10:21:04;;;;;;;26.45;15.15;;;17.50;99.90;;;18.99;74.37;100683.28;6215928;23;20009;-87
2021/08/17 10:23:39;;;;;;;29.20;16.52;;;17.80;99.90;;;19.24;73.68;100689.56;6216698;23;20027;-88
2021/08/17 10:26:05;;;;;;;25.63;14.07;;;18.00;99.90;;;19.61;71.48;100685.25;6218667;23;20005;-87
2021/08/17 10:28:41;;;;;;;28.02;15.00;;;18.20;99.90;;;19.36;71.25;100691.13;6217315;23;20015;-86